createdAt,value
2022-09-17T00:01:55.586Z,8.68
2022-09-17T00:04:25.085Z,2.67
2022-09-17T00:06:54.340Z,4.68
2022-09-17T00:09:24.270Z,3.10
2022-09-17T00:11:55.011Z,2.15
2022-09-17T00:14:24.601Z,2.95
2022-09-17T00:16:59.977Z,3.78
2022-09-17T00:19:31.523Z,3.97
2022-09-17T00:22:00.740Z,10.20
2022-09-17T00:24:30.141Z,3.92
2022-09-17T00:27:01.482Z,3.10
2022-09-17T00:29:30.901Z,2.70
2022-09-17T00:32:00.562Z,3.33
2022-09-17T00:34:29.908Z,3.35
2022-09-17T00:36:59.303Z,2.38
2022-09-17T00:39:28.911Z,2.30
2022-09-17T00:41:58.175Z,2.17
2022-09-17T00:44:49.914Z,1.63
2022-09-17T00:47:26.456Z,7.40
2022-09-17T00:49:59.567Z,4.80
2022-09-17T00:52:32.706Z,7.75
2022-09-17T00:55:09.654Z,1.80
2022-09-17T00:57:39.934Z,1.25
2022-09-17T01:00:13.334Z,3.83
2022-09-17T01:02:44.341Z,1.63
2022-09-17T01:05:14.548Z,5.10
2022-09-17T01:10:34.322Z,2.83
2022-09-17T01:13:15.141Z,2.58
2022-09-17T01:15:53.813Z,3.90
2022-09-17T01:18:37.297Z,4.72
2022-09-17T01:21:38.199Z,4.68
2022-09-17T01:27:25.569Z,2.85
2022-09-17T01:30:11.000Z,2.47
2022-09-17T01:32:47.936Z,2.08
2022-09-17T01:35:22.921Z,2.58
2022-09-17T01:38:03.223Z,1.70
2022-09-17T01:40:41.440Z,2.00
2022-09-17T01:43:15.299Z,2.38
2022-09-17T01:45:51.356Z,3.00
2022-09-17T01:48:26.589Z,1.40
2022-09-17T01:51:00.260Z,2.17
2022-09-17T01:53:37.189Z,6.57
2022-09-17T01:56:09.273Z,3.90
2022-09-17T01:58:44.718Z,4.25
2022-09-17T02:01:20.166Z,5.38
2022-09-17T02:03:56.353Z,1.58
2022-09-17T02:06:31.418Z,2.83
2022-09-17T02:09:03.421Z,2.10
2022-09-17T02:11:37.387Z,2.70
2022-09-17T02:14:10.506Z,2.47
2022-09-17T02:16:46.806Z,6.47
2022-09-17T02:19:22.762Z,1.33
2022-09-17T02:21:58.431Z,2.03
2022-09-17T02:24:30.470Z,4.97
2022-09-17T02:27:04.705Z,1.15
2022-09-17T02:29:40.444Z,1.77
2022-09-17T02:32:10.714Z,2.05
2022-09-17T02:34:42.296Z,1.58
2022-09-17T02:37:12.798Z,2.50
2022-09-17T02:39:42.294Z,2.53
2022-09-17T02:42:22.665Z,2.03
2022-09-17T02:45:07.637Z,4.63
2022-09-17T02:48:00.145Z,3.65
2022-09-17T02:50:44.112Z,2.22
2022-09-17T02:53:29.124Z,2.67
2022-09-17T02:56:04.302Z,5.90
2022-09-17T02:58:40.098Z,4.32
2022-09-17T03:01:16.141Z,2.33
2022-09-17T03:03:50.573Z,4.53
2022-09-17T03:06:22.788Z,3.35
2022-09-17T03:08:52.117Z,5.90
2022-09-17T03:11:22.014Z,1.50
2022-09-17T03:13:51.505Z,3.30
2022-09-17T03:16:20.901Z,3.78
2022-09-17T03:18:50.498Z,1.77
2022-09-17T03:21:21.225Z,3.40
2022-09-17T03:23:50.524Z,7.65
2022-09-17T03:26:20.264Z,4.53
2022-09-17T03:28:49.706Z,2.33
2022-09-17T03:31:18.998Z,2.13
2022-09-17T03:33:49.162Z,1.57
2022-09-17T03:36:18.473Z,2.25
2022-09-17T03:38:49.243Z,1.70
2022-09-17T03:41:18.918Z,1.42
2022-09-17T03:43:48.133Z,7.75
2022-09-17T03:46:17.402Z,3.67
2022-09-17T03:48:47.608Z,4.10
2022-09-17T03:51:16.922Z,5.18
2022-09-17T03:53:46.265Z,3.45
2022-09-17T03:56:18.164Z,2.70
2022-09-17T03:58:47.699Z,1.90
2022-09-17T04:01:17.806Z,0.88
2022-09-17T04:03:47.286Z,1.50
2022-09-17T04:06:16.588Z,2.13
2022-09-17T04:08:46.118Z,6.28
2022-09-17T04:11:17.226Z,3.15
2022-09-17T04:13:47.316Z,2.95
2022-09-17T04:16:16.689Z,3.70
2022-09-17T04:18:46.137Z,2.00
2022-09-17T04:21:15.892Z,1.77
2022-09-17T04:23:45.323Z,1.38
2022-09-17T04:26:14.889Z,2.85
2022-09-17T04:28:46.101Z,2.95
2022-09-17T04:33:44.809Z,4.18
2022-09-17T04:36:14.772Z,2.03
2022-09-17T04:38:44.065Z,1.83
2022-09-17T04:41:13.353Z,4.00
2022-09-17T04:43:43.157Z,3.15
2022-09-17T04:46:14.489Z,3.05
2022-09-17T04:48:44.274Z,5.25
2022-09-17T04:51:13.518Z,5.00
2022-09-17T04:53:42.909Z,3.58
2022-09-17T04:56:13.084Z,3.57
2022-09-17T04:58:42.381Z,3.92
2022-09-17T05:01:14.301Z,2.55
2022-09-17T05:03:44.222Z,3.90
2022-09-17T05:06:13.955Z,1.42
2022-09-17T05:08:43.210Z,1.92
2022-09-17T05:11:12.853Z,5.05
2022-09-17T05:13:42.269Z,3.60
2022-09-17T05:16:13.294Z,3.45
2022-09-17T05:18:43.434Z,3.08
2022-09-17T05:21:12.865Z,2.38
2022-09-17T05:23:42.245Z,3.13
2022-09-17T05:26:12.135Z,3.53
2022-09-17T05:28:41.641Z,4.07
2022-09-17T05:31:11.398Z,3.50
2022-09-17T05:33:42.828Z,4.20
2022-09-17T05:36:12.066Z,3.33
2022-09-17T05:38:42.216Z,3.60
2022-09-17T05:41:11.533Z,3.78
2022-09-17T05:43:41.128Z,2.67
2022-09-17T05:46:11.505Z,2.58
2022-09-17T05:48:42.305Z,3.53
2022-09-17T05:51:11.986Z,3.30
2022-09-17T05:53:41.379Z,4.95
2022-09-17T05:56:10.618Z,6.28
2022-09-17T05:58:40.241Z,3.85
2022-09-17T06:01:09.702Z,5.82
2022-09-17T06:03:39.052Z,3.38
2022-09-17T06:06:10.966Z,2.03
2022-09-17T06:08:40.705Z,1.80
2022-09-17T06:11:11.467Z,3.90
2022-09-17T06:13:40.906Z,5.05
2022-09-17T06:16:10.624Z,4.80
2022-09-17T06:18:40.124Z,2.58
2022-09-17T06:21:11.490Z,4.85
2022-09-17T06:23:43.723Z,6.25
2022-09-17T06:26:14.212Z,3.88
2022-09-17T06:28:44.337Z,3.47
2022-09-17T06:31:15.006Z,2.33
2022-09-17T06:33:44.673Z,4.70
2022-09-17T06:36:16.500Z,2.08
2022-09-17T06:38:47.860Z,4.28
2022-09-17T06:41:17.250Z,5.00
2022-09-17T06:43:47.121Z,2.00
2022-09-17T06:46:16.463Z,8.02
2022-09-17T06:48:45.726Z,4.38
2022-09-17T06:51:17.052Z,1.98
2022-09-17T06:53:46.577Z,3.28
2022-09-17T06:56:16.721Z,4.07
2022-09-17T06:58:46.008Z,2.28
2022-09-17T07:01:16.177Z,4.70
2022-09-17T07:06:16.899Z,3.35
2022-09-17T07:08:47.485Z,2.05
2022-09-17T07:11:17.522Z,3.33
2022-09-17T07:13:46.936Z,6.60
2022-09-17T07:16:17.145Z,6.20
2022-09-17T07:18:46.725Z,2.22
2022-09-17T07:21:17.481Z,2.63
2022-09-17T07:23:47.470Z,5.72
2022-09-17T07:26:18.025Z,3.65
2022-09-17T07:31:17.319Z,2.20
2022-09-17T07:33:47.145Z,4.15
2022-09-17T07:36:19.121Z,2.97
2022-09-17T07:38:48.714Z,1.40
2022-09-17T07:41:19.762Z,4.10
2022-09-17T07:43:49.297Z,3.90
2022-09-17T07:46:20.002Z,3.38
2022-09-17T07:48:50.285Z,3.10
2022-09-17T07:51:23.833Z,3.53
2022-09-17T07:53:54.037Z,4.75
2022-09-17T07:58:53.799Z,3.15
2022-09-17T08:01:23.264Z,2.30
2022-09-17T08:03:54.491Z,4.60
2022-09-17T08:08:56.571Z,3.15
2022-09-17T08:11:51.964Z,2.28
2022-09-17T08:14:18.016Z,3.05
2022-09-17T08:16:47.695Z,1.40
2022-09-17T08:19:19.293Z,3.45
2022-09-17T08:21:50.885Z,4.07
2022-09-17T08:24:20.167Z,4.15
2022-09-17T08:26:49.829Z,3.65
2022-09-17T08:29:19.265Z,5.57
2022-09-17T08:31:48.689Z,3.60
2022-09-17T08:34:18.229Z,3.50
2022-09-17T08:36:47.466Z,3.08
2022-09-17T08:39:18.491Z,4.03
2022-09-17T08:41:54.190Z,1.67
2022-09-17T08:44:28.013Z,4.25
2022-09-17T08:47:06.672Z,2.22
2022-09-17T08:49:38.184Z,3.40
2022-09-17T08:52:36.754Z,6.30
2022-09-17T08:55:21.676Z,2.58
2022-09-17T08:58:03.480Z,4.85
2022-09-17T09:03:22.410Z,7.18
2022-09-17T09:05:53.982Z,3.38
2022-09-17T09:08:30.500Z,2.67
2022-09-17T09:11:03.713Z,5.70
2022-09-17T09:13:36.873Z,2.10
2022-09-17T09:16:14.062Z,2.75
2022-09-17T09:18:43.930Z,3.15
2022-09-17T09:21:25.645Z,5.70
2022-09-17T09:23:58.838Z,3.95
2022-09-17T09:26:45.230Z,3.85
2022-09-17T09:29:24.912Z,5.82
2022-09-17T09:32:16.655Z,3.13
2022-09-17T09:34:49.458Z,3.30
2022-09-17T09:37:23.307Z,2.85
2022-09-17T09:39:56.849Z,2.20
2022-09-17T09:42:32.975Z,1.98
2022-09-17T09:45:08.973Z,4.93
2022-09-17T09:47:55.246Z,2.35
2022-09-17T09:51:05.307Z,2.95
2022-09-17T09:53:44.478Z,3.30
2022-09-17T09:56:29.906Z,2.45
2022-09-17T09:59:01.785Z,1.70
2022-09-17T10:01:42.708Z,3.22
2022-09-17T10:04:19.443Z,3.22
2022-09-17T10:06:50.713Z,0.90
2022-09-17T10:12:17.247Z,1.40
2022-09-17T10:14:48.949Z,2.22
2022-09-17T10:17:21.902Z,2.05
2022-09-17T10:20:24.476Z,2.25
2022-09-17T10:22:54.230Z,2.72
2022-09-17T10:25:31.413Z,1.30
2022-09-17T10:28:04.860Z,3.35
2022-09-17T10:30:37.106Z,5.35
2022-09-17T10:33:19.269Z,1.15
2022-09-17T10:36:04.713Z,1.55
2022-09-17T10:38:38.430Z,3.03
2022-09-17T10:41:13.652Z,2.92
2022-09-17T10:43:43.764Z,3.35
2022-09-17T10:46:18.761Z,4.60
2022-09-17T10:48:58.333Z,1.17
2022-09-17T10:51:28.498Z,2.50
2022-09-17T10:54:30.133Z,1.30
2022-09-17T10:57:03.246Z,1.35
2022-09-17T10:59:51.745Z,0.93
2022-09-17T11:03:01.376Z,0.85
2022-09-17T11:05:47.542Z,1.40
2022-09-17T11:08:23.483Z,1.63
2022-09-17T11:11:02.053Z,1.40
2022-09-17T11:13:41.697Z,1.10
2022-09-17T11:16:23.771Z,0.17
2022-09-17T11:19:04.327Z,1.13
2022-09-17T11:21:48.485Z,1.63
2022-09-17T11:24:46.973Z,1.52
2022-09-17T11:27:35.576Z,1.00
2022-09-17T11:30:11.939Z,1.13
2022-09-17T11:33:13.526Z,1.23
2022-09-17T11:35:49.522Z,0.93
2022-09-17T11:38:25.528Z,4.50
2022-09-17T11:41:02.904Z,1.88
2022-09-17T11:43:35.157Z,3.17
2022-09-17T11:46:10.202Z,1.35
2022-09-17T11:48:46.829Z,5.85
2022-09-17T11:51:29.574Z,3.80
2022-09-17T11:54:07.239Z,2.10
2022-09-17T11:56:41.968Z,3.90
2022-09-17T11:59:20.386Z,3.20
2022-09-17T12:01:58.202Z,2.33
2022-09-17T12:04:42.832Z,2.72
2022-09-17T12:07:26.162Z,1.33
2022-09-17T12:10:02.471Z,0.80
2022-09-17T12:12:49.704Z,0.68
2022-09-17T12:15:24.306Z,1.08
2022-09-17T12:18:30.402Z,1.80
2022-09-17T12:20:57.346Z,0.57
2022-09-17T12:23:39.898Z,2.55
2022-09-17T12:26:24.496Z,1.88
2022-09-17T12:29:02.603Z,2.83
2022-09-17T12:31:39.115Z,1.58
2022-09-17T12:34:28.598Z,3.13
2022-09-17T12:37:06.337Z,2.63
2022-09-17T12:39:55.513Z,0.30
2022-09-17T12:42:41.063Z,1.63
2022-09-17T12:45:33.207Z,0.80
2022-09-17T12:48:36.031Z,3.95
2022-09-17T12:51:19.905Z,0.60
2022-09-17T12:53:59.326Z,0.70
2022-09-17T12:56:41.126Z,0.73
2022-09-17T12:59:14.837Z,0.68
2022-09-17T13:01:52.651Z,2.28
2022-09-17T13:05:00.391Z,1.17
2022-09-17T13:07:45.286Z,2.70
2022-09-17T13:10:42.833Z,1.92
2022-09-17T13:13:30.648Z,1.38
2022-09-17T13:16:13.416Z,0.75
2022-09-17T13:19:15.107Z,4.70
2022-09-17T13:21:54.766Z,1.33
2022-09-17T13:24:26.189Z,1.70
2022-09-17T13:26:56.906Z,1.05
2022-09-17T13:30:03.957Z,3.08
2022-09-17T13:32:53.911Z,0.85
2022-09-17T13:35:48.154Z,2.17
2022-09-17T13:38:23.064Z,2.38
2022-09-17T13:40:53.792Z,2.22
2022-09-17T13:43:27.541Z,1.90
2022-09-17T13:46:24.210Z,2.65
2022-09-17T13:48:59.051Z,4.40
2022-09-17T13:51:55.817Z,3.00
2022-09-17T13:54:41.085Z,1.23
2022-09-17T13:57:17.789Z,3.30
2022-09-17T13:59:58.863Z,2.40
2022-09-17T14:02:42.858Z,1.85
2022-09-17T14:05:37.465Z,0.85
2022-09-17T14:08:50.209Z,3.85
2022-09-17T14:11:47.089Z,1.10
2022-09-17T14:14:49.921Z,2.25
2022-09-17T14:17:52.450Z,1.33
2022-09-17T14:20:24.094Z,1.00
2022-09-17T14:22:58.604Z,2.78
2022-09-17T14:25:34.885Z,0.98
2022-09-17T14:28:10.105Z,0.98
2022-09-17T14:30:39.386Z,4.82
2022-09-17T14:33:18.086Z,1.27
2022-09-17T14:35:48.757Z,0.75
2022-09-17T14:38:22.668Z,3.42
2022-09-17T14:41:00.419Z,1.13
2022-09-17T14:43:40.074Z,3.28
2022-09-17T14:46:12.358Z,1.92
2022-09-17T14:48:43.722Z,3.15
2022-09-17T14:51:28.562Z,4.57
2022-09-17T14:54:18.797Z,3.42
2022-09-17T14:56:54.919Z,0.77
2022-09-17T14:59:43.638Z,3.53
2022-09-17T15:02:41.989Z,1.75
2022-09-17T15:05:28.841Z,5.03
2022-09-17T15:08:13.260Z,3.45
2022-09-17T15:10:53.965Z,2.05
2022-09-17T15:13:27.293Z,2.80
2022-09-17T15:16:03.907Z,3.53
2022-09-17T15:18:43.155Z,1.48
2022-09-17T15:21:24.511Z,0.95
2022-09-17T15:26:30.974Z,4.18
2022-09-17T15:29:01.608Z,1.85
2022-09-17T15:31:31.723Z,3.00
2022-09-17T15:34:02.853Z,0.98
2022-09-17T15:36:34.550Z,2.72
2022-09-17T15:39:33.302Z,1.58
2022-09-17T15:42:03.429Z,2.25
2022-09-17T15:44:33.923Z,2.53
2022-09-17T15:47:52.424Z,3.90
2022-09-17T15:50:23.741Z,2.70
2022-09-17T15:53:12.920Z,8.15
2022-09-17T15:55:45.010Z,3.53
2022-09-17T15:58:27.294Z,1.95
2022-09-17T16:01:39.224Z,2.35
2022-09-17T16:04:32.646Z,2.97
2022-09-17T16:07:26.118Z,2.13
2022-09-17T16:09:59.607Z,1.98
2022-09-17T16:12:30.393Z,2.53
2022-09-17T16:15:01.917Z,3.08
2022-09-17T16:17:37.170Z,2.33
2022-09-17T16:20:15.804Z,2.40
2022-09-17T16:22:47.379Z,1.48
2022-09-17T16:25:19.998Z,2.20
2022-09-17T16:27:52.869Z,1.27
2022-09-17T16:30:24.883Z,1.08
2022-09-17T16:32:55.025Z,1.25
2022-09-17T16:35:27.351Z,2.22
2022-09-17T16:37:58.339Z,0.82
2022-09-17T16:40:29.978Z,1.25
2022-09-17T16:43:03.238Z,1.75
2022-09-17T16:45:33.593Z,0.98
2022-09-17T16:48:03.736Z,1.10
2022-09-17T16:50:34.025Z,1.70
2022-09-17T16:53:05.405Z,1.85
2022-09-17T16:55:37.851Z,3.90
2022-09-17T16:58:07.307Z,3.10
2022-09-17T17:00:37.716Z,2.67
2022-09-17T17:03:07.681Z,3.40
2022-09-17T17:05:39.241Z,2.00
2022-09-17T17:08:10.758Z,2.55
2022-09-17T17:10:41.966Z,3.38
2022-09-17T17:13:11.989Z,4.10
2022-09-17T17:15:42.793Z,4.45
2022-09-17T17:18:12.935Z,1.60
2022-09-17T17:20:42.277Z,2.90
2022-09-17T17:23:11.548Z,6.88
2022-09-17T17:25:42.878Z,3.45
2022-09-17T17:28:12.501Z,3.10
2022-09-17T17:30:42.053Z,5.73
2022-09-17T17:33:12.124Z,3.75
2022-09-17T17:35:42.045Z,3.50
2022-09-17T17:38:11.901Z,4.35
2022-09-17T17:40:42.688Z,4.47
2022-09-17T17:45:42.077Z,4.28
2022-09-17T17:48:11.627Z,6.82
2022-09-17T17:50:41.150Z,6.22
2022-09-17T17:53:10.697Z,7.85
2022-09-17T17:55:41.940Z,5.07
2022-09-17T17:58:11.589Z,6.78
2022-09-17T18:00:41.620Z,9.18
2022-09-17T18:03:11.979Z,6.10
2022-09-17T18:05:42.302Z,7.70
2022-09-17T18:08:11.690Z,7.53
2022-09-17T18:10:42.722Z,7.20
2022-09-17T18:13:12.905Z,5.82
2022-09-17T18:15:42.316Z,7.78
2022-09-17T18:18:11.794Z,7.75
2022-09-17T18:20:41.933Z,6.25
2022-09-17T18:23:11.289Z,7.75
2022-09-17T18:25:42.137Z,8.68
2022-09-17T18:28:12.303Z,9.27
2022-09-17T18:30:42.670Z,8.63
2022-09-17T18:33:11.969Z,8.50
2022-09-17T18:35:42.943Z,11.37
2022-09-17T18:38:12.342Z,10.02
2022-09-17T18:40:43.476Z,8.13
2022-09-17T18:43:13.297Z,12.13
2022-09-17T18:45:42.942Z,11.23
2022-09-17T18:48:12.306Z,14.25
2022-09-17T18:50:42.494Z,11.00
2022-09-17T18:53:12.209Z,11.60
2022-09-17T18:55:48.137Z,13.52
2022-09-17T18:58:18.093Z,12.90
2022-09-17T19:00:47.659Z,14.85
2022-09-17T19:03:17.000Z,18.30
2022-09-17T19:05:46.569Z,11.77
2022-09-17T19:08:15.933Z,11.25
2022-09-17T19:10:52.449Z,14.45
2022-09-17T19:13:22.769Z,12.60
2022-09-17T19:15:52.440Z,11.67
2022-09-17T19:18:21.836Z,15.02
2022-09-17T19:20:52.082Z,13.40
2022-09-17T19:23:21.980Z,9.35
2022-09-17T19:25:52.804Z,13.77
2022-09-17T19:28:23.363Z,14.88
2022-09-17T19:30:52.697Z,14.05
2022-09-17T19:33:22.211Z,10.48
2022-09-17T19:35:52.919Z,11.13
2022-09-17T19:38:22.157Z,14.43
2022-09-17T19:41:00.219Z,10.48
2022-09-17T19:43:32.733Z,15.55
2022-09-17T19:46:06.135Z,15.80
2022-09-17T19:48:37.167Z,12.68
2022-09-17T19:51:07.259Z,15.02
2022-09-17T19:53:37.226Z,11.18
2022-09-17T19:56:09.429Z,13.32
2022-09-17T19:58:39.018Z,13.70
2022-09-17T20:01:08.794Z,10.05
2022-09-17T20:03:39.998Z,13.52
2022-09-17T20:06:11.834Z,9.00
2022-09-17T20:08:47.194Z,10.20
2022-09-17T20:11:20.350Z,13.77
2022-09-17T20:13:50.109Z,12.60
2022-09-17T20:16:22.530Z,15.20
2022-09-17T20:18:52.269Z,10.88
2022-09-17T20:21:24.270Z,7.82
2022-09-17T20:23:53.861Z,10.27
2022-09-17T20:26:25.328Z,12.27
2022-09-17T20:28:55.164Z,11.20
2022-09-17T20:31:26.926Z,10.30
2022-09-17T20:33:57.763Z,16.20
2022-09-17T20:36:30.956Z,20.63
2022-09-17T20:39:21.990Z,15.00
2022-09-17T20:41:52.136Z,11.70
2022-09-17T20:44:21.530Z,9.27
2022-09-17T20:46:51.704Z,10.75
2022-09-17T20:49:20.988Z,12.18
2022-09-17T20:51:50.369Z,12.63
2022-09-17T20:54:20.181Z,11.68
2022-09-17T20:56:50.976Z,11.07
2022-09-17T20:59:25.362Z,11.55
2022-09-17T21:01:56.228Z,8.88
2022-09-17T21:04:27.504Z,10.43
2022-09-17T21:06:57.036Z,9.63
2022-09-17T21:09:27.181Z,9.57
2022-09-17T21:11:58.288Z,9.85
2022-09-17T21:14:28.026Z,7.90
2022-09-17T21:16:57.572Z,12.30
2022-09-17T21:19:27.205Z,9.45
2022-09-17T21:21:57.377Z,15.25
2022-09-17T21:24:26.881Z,11.18
2022-09-17T21:26:57.861Z,8.35
2022-09-17T21:29:27.935Z,13.18
2022-09-17T21:31:57.735Z,11.77
2022-09-17T21:34:27.257Z,15.48
2022-09-17T21:36:59.683Z,7.13
2022-09-17T21:39:29.241Z,9.52
2022-09-17T21:42:00.935Z,9.35
2022-09-17T21:44:30.286Z,10.35
2022-09-17T21:47:00.345Z,9.47
2022-09-17T21:49:29.633Z,5.82
2022-09-17T21:51:58.903Z,9.80
2022-09-17T21:54:29.013Z,10.50
2022-09-17T21:57:00.269Z,8.38
2022-09-17T21:59:30.165Z,7.07
2022-09-17T22:01:59.839Z,12.05
2022-09-17T22:04:29.402Z,12.00
2022-09-17T22:06:59.549Z,8.07
2022-09-17T22:09:30.519Z,6.80
2022-09-17T22:12:02.102Z,10.00
2022-09-17T22:14:31.518Z,6.45
2022-09-17T22:17:01.428Z,5.70
2022-09-17T22:19:30.857Z,8.00
2022-09-17T22:22:00.429Z,9.20
2022-09-17T22:24:30.669Z,7.35
2022-09-17T22:27:01.427Z,6.53
2022-09-17T22:29:32.392Z,8.23
2022-09-17T22:32:01.612Z,7.70
2022-09-17T22:34:31.271Z,8.90
2022-09-17T22:37:01.020Z,7.32
2022-09-17T22:39:30.602Z,8.45
2022-09-17T22:42:01.306Z,7.32
2022-09-17T22:44:31.277Z,4.82
2022-09-17T22:47:00.771Z,8.90
2022-09-17T22:49:30.397Z,10.00
2022-09-17T22:52:00.194Z,8.55
2022-09-17T22:54:29.554Z,6.95
2022-09-17T22:56:58.823Z,10.48
2022-09-17T22:59:29.938Z,12.73
2022-09-17T23:04:28.922Z,12.77
2022-09-17T23:06:58.334Z,8.90
2022-09-17T23:09:27.737Z,10.30
2022-09-17T23:11:57.771Z,9.60
2022-09-17T23:14:27.005Z,7.32
2022-09-17T23:16:57.956Z,11.60
2022-09-17T23:19:27.901Z,11.40
2022-09-17T23:21:57.185Z,8.65
2022-09-17T23:24:26.689Z,11.60
2022-09-17T23:26:57.186Z,15.20
2022-09-17T23:29:26.625Z,7.28
2022-09-17T23:31:57.369Z,8.82
2022-09-17T23:34:27.430Z,6.00
2022-09-17T23:36:56.888Z,8.40
2022-09-17T23:39:26.882Z,10.45
2022-09-17T23:41:58.338Z,5.75
2022-09-17T23:46:58.341Z,9.48
2022-09-17T23:49:28.504Z,11.25
2022-09-17T23:51:57.921Z,11.55
2022-09-17T23:54:27.250Z,7.20
2022-09-17T23:56:56.948Z,11.75
2022-09-17T23:59:26.563Z,8.05
